Terminal Aerodrome Forecast
Issued by NWS Grand Forks, ND

Home | Current Version | Previous Version | Text Only | Print | Product List | Glossary Off
Versions: 1 2 3 4 5 6 7 8 9 10 11 12 13 14 15 16 17

098
FTUS43 KFGF 230520
TAFGFK
TAF
KGFK 230520Z 2306/2406 29014KT P6SM BKN090
     FM231300 31017KT P6SM OVC025
     FM231800 31019G27KT P6SM BKN035
     FM240200 31012KT P6SM BKN060
     FM240400 30006KT P6SM SCT070=

USA.gov is the U.S. government's official web portal to all federal, state and local government web resources and services.